Time;durP1;ratioP1;P1;durP2;ratioP2;P2;SDS_P1;SDS_P2;PMS_P1;PMS_P2;Temp;Humidity;BMP_temperature;BMP_pressure;BME280_temperature;BME280_humidity;BME280_pressure;Samples;Min_cycle;Max_cycle;Signal;HPM_P1;HPM_P2
2023/12/22 00:00:19;;;;;;;22.20;4.90;;;10.40;84.00;;;;;;5046722;28;20064;-78
2023/12/22 00:02:44;;;;;;;24.35;5.20;;;10.50;83.10;;;;;;5052310;28;20036;-77
2023/12/22 00:05:10;;;;;;;20.15;4.65;;;10.50;83.50;;;;;;5059509;28;20377;-77
2023/12/22 00:07:36;;;;;;;18.75;4.60;;;10.50;83.50;;;;;;5053635;28;20107;-76
2023/12/22 00:10:02;;;;;;;17.25;4.30;;;10.50;82.90;;;;;;5059401;28;20055;-78
2023/12/22 00:12:28;;;;;;;19.00;5.13;;;10.50;82.40;;;;;;5074963;28;20086;-80
2023/12/22 00:14:54;;;;;;;19.50;4.72;;;10.50;82.50;;;;;;5087532;28;20092;-79
2023/12/22 00:17:19;;;;;;;20.05;4.97;;;10.50;82.10;;;;;;5079924;28;20055;-77
2023/12/22 00:19:45;;;;;;;18.83;4.18;;;10.60;82.30;;;;;;5070835;28;20400;-76
2023/12/22 00:22:11;;;;;;;23.92;5.20;;;10.60;82.30;;;;;;5059462;28;20562;-77
2023/12/22 00:24:36;;;;;;;19.92;4.95;;;10.50;82.20;;;;;;5068245;28;20468;-77
2023/12/22 00:27:03;;;;;;;20.75;4.38;;;10.60;82.30;;;;;;5063432;28;20453;-78
2023/12/22 00:29:28;;;;;;;19.83;4.55;;;10.60;82.50;;;;;;5066402;28;20028;-77
2023/12/22 00:31:55;;;;;;;20.80;5.00;;;10.50;82.80;;;;;;5073466;28;20085;-75
2023/12/22 00:34:22;;;;;;;21.25;4.75;;;10.40;83.50;;;;;;5075765;28;20020;-78
2023/12/22 00:36:48;;;;;;;16.98;4.45;;;10.30;84.20;;;;;;5079935;28;20182;-77
2023/12/22 00:39:14;;;;;;;18.60;5.18;;;10.20;84.80;;;;;;5066471;28;20476;-78
2023/12/22 00:41:39;;;;;;;17.65;5.03;;;10.10;85.50;;;;;;5051679;28;20122;-76
2023/12/22 00:44:05;;;;;;;20.52;4.95;;;10.10;85.90;;;;;;5065888;28;20090;-75
2023/12/22 00:46:31;;;;;;;20.75;5.50;;;9.90;86.60;;;;;;5059245;28;20066;-75
2023/12/22 00:48:56;;;;;;;21.98;5.30;;;9.90;87.30;;;;;;5058095;28;20127;-77
2023/12/22 00:51:22;;;;;;;24.33;5.53;;;9.90;87.90;;;;;;5054389;28;20128;-77
2023/12/22 00:53:48;;;;;;;22.20;6.13;;;9.80;88.10;;;;;;5060795;28;20454;-77
2023/12/22 00:56:14;;;;;;;23.08;5.90;;;9.80;88.30;;;;;;5058335;28;20059;-76
2023/12/22 00:58:40;;;;;;;22.83;5.15;;;9.80;88.50;;;;;;5059122;28;20440;-77
2023/12/22 01:01:06;;;;;;;23.88;5.53;;;9.80;88.60;;;;;;5057742;28;20048;-78
2023/12/22 01:03:31;;;;;;;23.85;6.55;;;9.80;88.70;;;;;;5044776;28;20173;-77
2023/12/22 01:05:57;;;;;;;25.30;5.50;;;9.80;88.70;;;;;;5053820;28;20428;-77
2023/12/22 01:08:23;;;;;;;28.30;6.90;;;9.80;88.90;;;;;;5057762;28;20070;-76
2023/12/22 01:10:48;;;;;;;24.25;5.72;;;9.80;88.90;;;;;;5051433;28;20047;-77
2023/12/22 01:13:14;;;;;;;23.65;5.85;;;9.80;88.80;;;;;;5067058;28;20028;-78
2023/12/22 01:15:40;;;;;;;26.50;5.93;;;9.80;88.70;;;;;;5058708;28;20056;-78
2023/12/22 01:18:06;;;;;;;24.00;6.05;;;9.90;88.70;;;;;;5050368;28;20029;-77
2023/12/22 01:20:31;;;;;;;29.45;6.18;;;9.80;88.30;;;;;;5045647;28;20048;-77
2023/12/22 01:22:57;;;;;;;24.60;6.68;;;9.90;87.80;;;;;;5041083;28;20407;-77
2023/12/22 01:25:23;;;;;;;21.27;5.80;;;10.00;87.70;;;;;;5065010;28;20091;-77
2023/12/22 01:27:52;;;;;;;25.67;5.25;;;10.00;87.20;;;;;;5052384;28;20025;-76
2023/12/22 01:30:18;;;;;;;24.00;6.50;;;10.10;86.80;;;;;;5051494;28;20435;-77
2023/12/22 01:32:44;;;;;;;28.73;6.15;;;10.10;86.20;;;;;;5058752;28;20075;-77
2023/12/22 01:35:10;;;;;;;20.67;4.90;;;10.10;85.80;;;;;;5059832;28;20053;-76
2023/12/22 01:37:38;;;;;;;19.15;5.25;;;10.10;85.20;;;;;;5055510;28;20043;-76
2023/12/22 01:40:05;;;;;;;21.27;4.95;;;10.20;83.60;;;;;;5055180;28;20158;-77
2023/12/22 01:42:30;;;;;;;14.20;3.72;;;10.20;83.20;;;;;;5052345;28;20036;-77
2023/12/22 01:44:56;;;;;;;7.18;2.00;;;10.00;83.60;;;;;;5054758;28;20158;-78
2023/12/22 01:47:22;;;;;;;6.95;2.03;;;9.60;84.00;;;;;;5059999;28;20608;-77
2023/12/22 01:49:48;;;;;;;8.45;2.42;;;9.30;86.30;;;;;;5058147;28;20060;-75
2023/12/22 01:52:15;;;;;;;7.25;2.15;;;9.10;87.70;;;;;;5058348;28;20086;-79
2023/12/22 01:54:41;;;;;;;6.10;2.47;;;9.10;88.70;;;;;;5057871;28;20048;-76
2023/12/22 01:57:07;;;;;;;7.10;2.35;;;9.00;88.90;;;;;;5041506;28;20071;-78
2023/12/22 01:59:34;;;;;;;9.50;2.20;;;9.00;89.30;;;;;;5060827;28;20028;-77
2023/12/22 02:02:03;;;;;;;12.20;2.40;;;8.90;89.90;;;;;;5060051;28;20054;-77
2023/12/22 02:04:31;;;;;;;10.18;2.33;;;8.90;90.60;;;;;;5055098;28;20445;-78
2023/12/22 02:07:02;;;;;;;16.13;3.17;;;8.90;91.20;;;;;;5061641;28;20063;-80
2023/12/22 02:09:27;;;;;;;12.98;3.22;;;8.90;92.20;;;;;;5042879;28;20764;-76
2023/12/22 02:11:53;;;;;;;14.82;3.55;;;8.90;92.80;;;;;;5062170;28;20044;-75
2023/12/22 02:14:19;;;;;;;15.10;3.60;;;8.80;93.30;;;;;;5061208;28;20048;-75
2023/12/22 02:17:35;;;;;;;16.02;3.55;;;8.80;93.50;;;;;;5060756;28;20418;-75
2023/12/22 02:20:01;;;;;;;16.95;3.80;;;8.70;93.80;;;;;;5028567;28;20032;-78
2023/12/22 02:22:29;;;;;;;14.77;3.45;;;8.70;94.20;;;;;;5062581;28;20055;-79
2023/12/22 02:24:55;;;;;;;19.88;4.63;;;8.70;94.40;;;;;;5062101;28;20141;-78
2023/12/22 02:27:40;;;;;;;21.75;3.75;;;8.70;94.70;;;;;;5059032;28;20542;-76
2023/12/22 02:30:20;;;;;;;22.13;4.10;;;8.70;94.80;;;;;;5057426;28;20032;-75
2023/12/22 02:32:48;;;;;;;19.35;3.63;;;8.70;95.00;;;;;;5052301;28;20424;-76
2023/12/22 02:35:19;;;;;;;23.23;3.97;;;8.70;95.00;;;;;;5053643;28;20033;-78
2023/12/22 02:37:47;;;;;;;16.52;3.90;;;8.60;95.10;;;;;;5043941;28;20009;-76
2023/12/22 02:40:14;;;;;;;14.15;3.53;;;8.70;95.20;;;;;;5060011;28;20147;-78
2023/12/22 02:42:40;;;;;;;23.75;4.32;;;8.70;95.20;;;;;;5060737;28;20025;-77
2023/12/22 02:45:12;;;;;;;21.30;4.60;;;8.70;95.10;;;;;;5043905;28;20079;-76
2023/12/22 02:47:38;;;;;;;21.65;5.43;;;8.80;95.00;;;;;;5060294;28;20422;-76
2023/12/22 02:50:04;;;;;;;20.48;5.00;;;8.80;95.00;;;;;;5054321;28;20131;-76
2023/12/22 02:52:31;;;;;;;26.65;4.97;;;8.80;95.00;;;;;;5059357;28;20082;-75
2023/12/22 02:54:57;;;;;;;28.45;5.82;;;8.80;94.90;;;;;;5054616;28;20040;-76
2023/12/22 02:57:22;;;;;;;20.75;4.90;;;8.80;94.90;;;;;;5063260;28;20033;-77
2023/12/22 02:59:48;;;;;;;33.08;7.53;;;8.90;94.90;;;;;;5058261;28;21528;-77
2023/12/22 03:02:14;;;;;;;24.88;6.07;;;8.90;94.80;;;;;;5056812;28;20053;-77
2023/12/22 03:04:40;;;;;;;23.10;6.05;;;9.00;94.70;;;;;;5038016;28;20099;-75
2023/12/22 03:07:05;;;;;;;28.67;7.13;;;9.00;94.50;;;;;;5058123;28;20927;-75
2023/12/22 03:09:32;;;;;;;28.13;6.85;;;9.10;94.10;;;;;;5061401;28;20068;-76
2023/12/22 03:12:01;;;;;;;28.48;6.07;;;9.20;93.60;;;;;;5053882;28;20048;-75
2023/12/22 03:14:33;;;;;;;29.58;8.30;;;9.30;93.40;;;;;;5061639;28;20051;-76
2023/12/22 03:16:59;;;;;;;23.90;5.95;;;9.30;93.30;;;;;;5048724;28;20395;-75
2023/12/22 03:19:25;;;;;;;26.50;5.47;;;9.30;93.10;;;;;;5062776;28;20120;-76
2023/12/22 03:21:51;;;;;;;26.65;6.25;;;9.30;93.00;;;;;;5052490;28;20148;-76
2023/12/22 03:24:19;;;;;;;31.83;7.95;;;9.40;92.70;;;;;;5062798;28;20023;-76
2023/12/22 03:26:45;;;;;;;20.05;6.03;;;9.40;92.60;;;;;;5056328;28;20052;-76
2023/12/22 03:29:10;;;;;;;30.13;6.60;;;9.40;92.40;;;;;;5060063;28;20058;-77
2023/12/22 03:31:36;;;;;;;28.42;6.03;;;9.40;91.90;;;;;;5054195;28;20044;-76
2023/12/22 03:34:02;;;;;;;25.15;6.28;;;9.50;91.00;;;;;;5065049;28;20083;-74
2023/12/22 03:36:27;;;;;;;35.47;6.28;;;9.60;90.40;;;;;;5055879;28;20025;-76
2023/12/22 03:38:53;;;;;;;28.83;6.70;;;9.60;89.60;;;;;;5057068;28;20036;-75
2023/12/22 03:41:18;;;;;;;31.42;6.40;;;9.60;88.80;;;;;;5057600;28;20472;-76
2023/12/22 03:43:44;;;;;;;28.23;6.63;;;9.70;88.30;;;;;;5062367;28;20056;-77
2023/12/22 03:46:10;;;;;;;31.95;6.93;;;9.70;87.70;;;;;;5054507;28;20035;-76
2023/12/22 03:48:35;;;;;;;31.17;7.32;;;9.80;87.30;;;;;;5054996;28;20472;-77
2023/12/22 03:51:01;;;;;;;30.08;7.18;;;9.80;87.40;;;;;;5049740;28;20048;-77
2023/12/22 03:53:27;;;;;;;28.67;7.05;;;9.80;87.20;;;;;;5056494;28;20036;-76
2023/12/22 03:55:52;;;;;;;26.17;6.38;;;9.80;86.90;;;;;;5050941;28;20425;-76
2023/12/22 03:58:18;;;;;;;30.48;6.88;;;9.80;86.90;;;;;;5056335;28;20089;-75
2023/12/22 04:00:43;;;;;;;32.17;7.22;;;9.80;86.40;;;;;;5038746;28;20412;-75
2023/12/22 04:03:09;;;;;;;24.77;6.13;;;9.80;86.30;;;;;;5055637;28;20028;-77
2023/12/22 04:05:35;;;;;;;30.25;6.55;;;9.90;86.10;;;;;;5053965;28;20103;-75
2023/12/22 04:08:00;;;;;;;33.08;7.18;;;9.90;85.50;;;;;;5055554;28;20032;-77
2023/12/22 04:10:26;;;;;;;25.38;6.63;;;9.90;85.60;;;;;;5058508;28;20064;-77
2023/12/22 04:12:51;;;;;;;28.83;7.43;;;9.90;85.70;;;;;;5059622;28;20477;-75
2023/12/22 04:15:17;;;;;;;30.67;6.88;;;9.90;85.90;;;;;;5058923;28;20040;-77
2023/12/22 04:17:42;;;;;;;27.38;5.68;;;9.90;86.00;;;;;;5059702;28;20036;-75
2023/12/22 04:20:08;;;;;;;30.42;6.05;;;9.90;85.80;;;;;;5052642;28;20033;-76
2023/12/22 04:22:34;;;;;;;31.80;6.80;;;10.00;85.50;;;;;;5061374;28;20688;-77
2023/12/22 04:25:00;;;;;;;27.63;7.30;;;9.90;85.70;;;;;;5064273;28;20440;-75
2023/12/22 04:27:26;;;;;;;30.85;6.80;;;9.90;85.50;;;;;;5061985;28;20031;-78
2023/12/22 04:29:52;;;;;;;27.05;6.80;;;9.90;85.80;;;;;;5049867;28;20526;-77
2023/12/22 04:32:17;;;;;;;27.85;6.68;;;9.90;85.60;;;;;;5055379;28;20433;-75
2023/12/22 04:34:43;;;;;;;25.75;6.32;;;10.00;85.80;;;;;;5052024;28;20071;-77
2023/12/22 04:37:09;;;;;;;27.70;7.47;;;10.00;85.70;;;;;;5051475;28;20409;-75
2023/12/22 04:39:35;;;;;;;28.00;6.05;;;10.00;85.70;;;;;;5054288;28;20024;-75
2023/12/22 04:42:00;;;;;;;27.35;6.35;;;10.00;85.60;;;;;;5051033;28;20040;-76
2023/12/22 04:44:26;;;;;;;29.48;6.00;;;10.00;85.30;;;;;;5058732;28;20040;-75
2023/12/22 04:46:51;;;;;;;28.80;6.30;;;10.10;85.60;;;;;;5055437;28;20029;-77
2023/12/22 04:49:18;;;;;;;29.13;6.65;;;10.10;85.50;;;;;;5037827;28;20579;-75
2023/12/22 04:51:43;;;;;;;31.83;7.03;;;10.10;85.70;;;;;;5057509;28;20052;-76
2023/12/22 04:54:09;;;;;;;29.85;5.93;;;10.10;85.60;;;;;;5041694;28;20078;-75
2023/12/22 04:56:35;;;;;;;26.42;5.80;;;10.00;85.80;;;;;;5053518;28;20484;-77
2023/12/22 04:59:00;;;;;;;25.50;6.80;;;10.00;86.00;;;;;;5057898;28;20099;-76
2023/12/22 05:01:26;;;;;;;28.58;6.10;;;10.00;86.10;;;;;;5055762;28;20727;-76
2023/12/22 05:03:53;;;;;;;26.50;6.75;;;10.10;86.30;;;;;;5058257;28;20029;-75
2023/12/22 05:06:19;;;;;;;24.50;5.50;;;10.10;86.40;;;;;;5052854;28;20032;-77
2023/12/22 05:08:45;;;;;;;22.60;5.40;;;10.00;86.50;;;;;;5055678;28;20021;-76
2023/12/22 05:11:10;;;;;;;25.10;5.00;;;10.00;86.90;;;;;;5057613;28;20381;-76
2023/12/22 05:13:36;;;;;;;24.55;5.50;;;10.00;87.10;;;;;;5062450;28;20017;-76
2023/12/22 05:16:04;;;;;;;25.98;5.20;;;10.00;87.20;;;;;;5056670;28;20124;-76
2023/12/22 05:18:30;;;;;;;22.17;4.45;;;10.00;87.40;;;;;;5058445;28;20111;-76
2023/12/22 05:20:55;;;;;;;21.27;4.85;;;10.00;87.40;;;;;;5035849;28;20120;-75
2023/12/22 05:23:21;;;;;;;25.33;5.70;;;10.00;87.70;;;;;;5054901;28;20421;-77
2023/12/22 05:25:46;;;;;;;18.50;4.55;;;9.90;87.70;;;;;;5063664;28;20386;-77
2023/12/22 05:28:12;;;;;;;19.63;4.80;;;9.90;87.90;;;;;;5057387;28;20053;-77
2023/12/22 05:30:37;;;;;;;23.02;4.82;;;10.00;88.00;;;;;;5056679;28;20074;-76
2023/12/22 05:33:03;;;;;;;17.67;4.00;;;10.00;88.20;;;;;;5080563;28;20024;-79
2023/12/22 05:35:29;;;;;;;18.55;4.05;;;10.00;88.40;;;;;;5063105;28;20040;-77
2023/12/22 05:37:54;;;;;;;18.77;4.18;;;10.00;88.50;;;;;;5081488;28;20077;-78
2023/12/22 05:40:20;;;;;;;14.82;3.85;;;10.00;88.90;;;;;;5067134;28;20094;-76
2023/12/22 05:42:46;;;;;;;18.23;4.10;;;10.00;89.00;;;;;;5061439;28;20048;-77
2023/12/22 05:45:13;;;;;;;18.77;4.13;;;10.00;89.20;;;;;;5058981;28;20039;-76
2023/12/22 05:47:39;;;;;;;20.10;4.00;;;10.00;89.80;;;;;;5060721;28;20024;-76
2023/12/22 05:50:05;;;;;;;19.20;4.65;;;9.90;90.30;;;;;;5058388;28;20039;-76
2023/12/22 05:52:31;;;;;;;18.20;3.85;;;9.90;90.40;;;;;;5061227;28;20481;-76
2023/12/22 05:54:57;;;;;;;14.73;4.00;;;9.80;90.60;;;;;;5061854;28;20040;-76
2023/12/22 05:57:24;;;;;;;17.88;4.15;;;9.90;90.60;;;;;;5060266;28;20028;-76
2023/12/22 05:59:50;;;;;;;19.80;3.63;;;9.90;90.80;;;;;;5060718;28;20048;-77
2023/12/22 06:02:16;;;;;;;21.08;3.60;;;9.80;91.50;;;;;;5060599;28;20063;-76
2023/12/22 06:04:41;;;;;;;17.63;4.15;;;9.90;91.70;;;;;;5057234;28;20025;-78
2023/12/22 06:07:07;;;;;;;13.40;3.15;;;9.80;91.80;;;;;;5052572;28;20052;-76
2023/12/22 06:09:33;;;;;;;15.30;3.50;;;9.80;92.00;;;;;;5059482;28;20028;-76
2023/12/22 06:11:58;;;;;;;13.80;3.08;;;9.80;92.10;;;;;;5062490;28;20043;-77
2023/12/22 06:14:24;;;;;;;16.30;4.40;;;9.90;92.10;;;;;;5025544;28;1098685;-78
2023/12/22 06:16:50;;;;;;;16.33;3.85;;;9.90;92.20;;;;;;5062014;28;20040;-78
2023/12/22 06:19:16;;;;;;;11.82;3.20;;;9.90;92.20;;;;;;5062567;28;20027;-75
2023/12/22 06:21:42;;;;;;;13.90;3.22;;;9.90;92.20;;;;;;5055492;28;20029;-76
2023/12/22 06:24:08;;;;;;;14.10;3.42;;;9.90;92.20;;;;;;5058582;28;20048;-77
2023/12/22 06:26:34;;;;;;;8.98;2.67;;;9.90;92.30;;;;;;5062685;28;20036;-76
2023/12/22 06:29:00;;;;;;;13.43;3.60;;;9.90;92.50;;;;;;5053324;28;20036;-76
2023/12/22 06:31:25;;;;;;;13.40;2.95;;;9.90;92.60;;;;;;5054511;28;20043;-76
2023/12/22 06:33:51;;;;;;;12.48;3.72;;;9.90;92.70;;;;;;5059643;28;20033;-78
2023/12/22 06:36:24;;;;;;;11.88;3.10;;;10.00;92.80;;;;;;5050126;28;20489;-78
2023/12/22 06:38:51;;;;;;;13.63;3.75;;;9.90;93.10;;;;;;5052234;28;20021;-77
2023/12/22 06:41:25;;;;;;;13.10;3.60;;;10.00;93.30;;;;;;5037251;28;20044;-75
2023/12/22 06:43:51;;;;;;;11.27;2.90;;;10.00;93.60;;;;;;5057423;28;20040;-77
2023/12/22 06:46:18;;;;;;;10.55;2.90;;;10.00;93.80;;;;;;5060037;28;20040;-78
2023/12/22 06:48:44;;;;;;;11.20;3.40;;;10.00;94.00;;;;;;5055304;28;20031;-75
2023/12/22 06:51:20;;;;;;;11.63;2.92;;;10.00;94.20;;;;;;5056840;28;20036;-75
2023/12/22 06:53:46;;;;;;;8.38;2.30;;;10.00;94.70;;;;;;5056711;28;20036;-75
2023/12/22 06:56:26;;;;;;;8.40;2.63;;;10.00;94.90;;;;;;5059629;28;20493;-79
2023/12/22 06:58:53;;;;;;;7.72;3.00;;;9.90;95.30;;;;;;5054853;28;20028;-76
2023/12/22 07:01:23;;;;;;;8.10;2.88;;;9.90;95.50;;;;;;5063154;28;20040;-76
2023/12/22 07:03:50;;;;;;;8.43;2.97;;;9.90;95.80;;;;;;5060554;28;20041;-75
2023/12/22 07:06:16;;;;;;;9.30;3.25;;;10.00;95.90;;;;;;5057410;28;20082;-76
2023/12/22 07:08:42;;;;;;;9.38;3.20;;;9.90;96.10;;;;;;5061788;28;20125;-76
2023/12/22 07:11:09;;;;;;;8.93;2.83;;;9.90;96.40;;;;;;5040184;28;20510;-78
2023/12/22 07:13:34;;;;;;;9.52;2.50;;;9.80;96.60;;;;;;5050814;28;20068;-78
2023/12/22 07:16:02;;;;;;;8.23;2.75;;;9.80;96.90;;;;;;5050737;28;20076;-78
2023/12/22 07:18:30;;;;;;;8.15;2.92;;;9.80;97.10;;;;;;5050164;28;20460;-78
2023/12/22 07:20:57;;;;;;;9.70;3.75;;;9.80;97.50;;;;;;5054195;28;20406;-77
2023/12/22 07:23:22;;;;;;;9.07;4.20;;;9.90;97.60;;;;;;5056616;28;20021;-77
2023/12/22 07:25:48;;;;;;;12.70;4.43;;;9.90;97.80;;;;;;5060683;28;20094;-76
2023/12/22 07:28:15;;;;;;;14.63;4.65;;;9.90;97.80;;;;;;5062173;28;20131;-76
2023/12/22 07:30:41;;;;;;;9.45;4.38;;;9.90;97.80;;;;;;5061725;28;20051;-76
2023/12/22 07:33:07;;;;;;;15.35;4.78;;;9.90;97.90;;;;;;5060157;28;20025;-75
2023/12/22 07:35:33;;;;;;;11.13;4.90;;;10.00;97.90;;;;;;5042086;28;20063;-77
2023/12/22 07:37:59;;;;;;;15.38;5.75;;;9.90;98.00;;;;;;5055071;28;20032;-76
2023/12/22 07:40:24;;;;;;;13.98;5.38;;;10.00;98.00;;;;;;5059553;28;20040;-78
2023/12/22 07:42:53;;;;;;;14.25;5.63;;;10.00;98.20;;;;;;5048946;28;20657;-76
2023/12/22 07:45:19;;;;;;;12.57;5.28;;;10.00;98.20;;;;;;5058546;28;20073;-75
2023/12/22 07:47:46;;;;;;;12.15;4.72;;;10.00;98.20;;;;;;5054277;28;20044;-76
2023/12/22 07:50:11;;;;;;;12.30;4.50;;;10.00;98.20;;;;;;5057308;28;20112;-78
2023/12/22 07:52:38;;;;;;;11.98;4.45;;;10.00;98.20;;;;;;5055808;28;20480;-76
2023/12/22 07:55:11;;;;;;;14.65;4.03;;;10.10;98.10;;;;;;5059371;28;20036;-76
2023/12/22 07:57:37;;;;;;;17.33;4.20;;;10.10;98.00;;;;;;5043731;28;20032;-77
2023/12/22 08:00:04;;;;;;;11.63;3.90;;;10.10;97.90;;;;;;5056908;28;20442;-77
2023/12/22 08:02:30;;;;;;;12.35;3.85;;;10.10;97.80;;;;;;5051266;28;20116;-77
2023/12/22 08:04:55;;;;;;;12.57;4.28;;;10.10;97.80;;;;;;5052765;28;20207;-77
2023/12/22 08:07:21;;;;;;;11.27;3.55;;;10.20;97.60;;;;;;5050842;28;20151;-77
2023/12/22 08:09:47;;;;;;;14.18;3.97;;;10.20;97.40;;;;;;5053411;28;20400;-77
2023/12/22 08:12:12;;;;;;;16.30;4.03;;;10.20;97.20;;;;;;5052947;28;20044;-77
2023/12/22 08:14:38;;;;;;;13.25;3.60;;;10.30;97.00;;;;;;5053823;28;20044;-78
2023/12/22 08:17:03;;;;;;;10.77;3.30;;;10.30;96.70;;;;;;5055412;28;20033;-77
2023/12/22 08:19:29;;;;;;;9.52;3.15;;;10.40;96.50;;;;;;5056126;28;20025;-78
2023/12/22 08:21:55;;;;;;;14.57;3.10;;;10.40;96.20;;;;;;5056105;28;20033;-78
2023/12/22 08:24:21;;;;;;;9.20;2.67;;;10.50;95.90;;;;;;5065897;28;20020;-77
2023/12/22 08:26:47;;;;;;;11.48;2.80;;;10.50;95.60;;;;;;5051307;28;20045;-78
2023/12/22 08:29:13;;;;;;;12.93;3.03;;;10.50;95.60;;;;;;5058085;28;20032;-77
2023/12/22 08:31:39;;;;;;;11.27;3.42;;;10.60;95.40;;;;;;5047585;28;20550;-77
2023/12/22 08:34:05;;;;;;;12.98;2.75;;;10.60;95.30;;;;;;5036610;28;20033;-77
2023/12/22 08:36:31;;;;;;;10.25;2.50;;;10.60;95.20;;;;;;5055855;28;20029;-78
2023/12/22 08:38:57;;;;;;;7.88;2.30;;;10.60;95.00;;;;;;5059952;28;20023;-77
2023/12/22 08:41:23;;;;;;;10.98;2.65;;;10.60;94.90;;;;;;5059035;28;20032;-77
2023/12/22 08:43:48;;;;;;;12.05;2.75;;;10.60;94.80;;;;;;5058644;28;20037;-78
2023/12/22 08:46:14;;;;;;;9.13;2.42;;;10.70;94.70;;;;;;5056144;28;20123;-78
2023/12/22 08:48:40;;;;;;;9.13;2.38;;;10.70;94.40;;;;;;5062893;28;20044;-78
2023/12/22 08:51:06;;;;;;;10.07;3.63;;;10.70;94.20;;;;;;5058410;28;20064;-77
2023/12/22 08:53:36;;;;;;;11.43;3.60;;;10.80;93.70;;;;;;5054654;28;20518;-78
2023/12/22 08:56:02;;;;;;;8.65;2.92;;;10.90;93.70;;;;;;5050353;28;20033;-77
2023/12/22 08:58:27;;;;;;;8.10;2.45;;;10.90;93.80;;;;;;5055126;28;20038;-78
2023/12/22 09:00:53;;;;;;;7.57;2.30;;;10.90;93.80;;;;;;5041829;28;20045;-77
2023/12/22 09:03:18;;;;;;;7.03;2.38;;;10.90;93.80;;;;;;5053254;28;20455;-77
2023/12/22 09:05:44;;;;;;;10.65;2.50;;;10.90;93.70;;;;;;5057328;28;20123;-78
2023/12/22 09:08:09;;;;;;;7.75;2.38;;;10.90;93.70;;;;;;5060755;28;20074;-79
2023/12/22 09:10:35;;;;;;;10.10;2.20;;;10.90;93.80;;;;;;5057680;28;20041;-77
2023/12/22 09:13:01;;;;;;;6.82;2.10;;;10.90;93.80;;;;;;5057426;28;20040;-78
2023/12/22 09:15:27;;;;;;;8.75;2.53;;;10.90;93.80;;;;;;5052365;28;20090;-78
2023/12/22 09:17:55;;;;;;;11.85;2.83;;;10.90;93.70;;;;;;5057401;28;20479;-78
2023/12/22 09:20:21;;;;;;;11.35;2.65;;;10.90;93.70;;;;;;5037532;28;20036;-77
2023/12/22 09:22:47;;;;;;;8.82;2.22;;;10.90;93.80;;;;;;5058408;28;20037;-78
2023/12/22 09:25:12;;;;;;;9.15;2.22;;;11.00;93.90;;;;;;5070130;28;20389;-77
2023/12/22 09:27:38;;;;;;;6.68;1.98;;;10.90;94.10;;;;;;5060801;28;20439;-77
2023/12/22 09:30:06;;;;;;;9.45;2.40;;;10.90;94.10;;;;;;5058316;28;20475;-78
2023/12/22 09:32:32;;;;;;;9.20;2.20;;;11.00;94.10;;;;;;5051405;28;20051;-78
2023/12/22 09:35:00;;;;;;;8.07;2.28;;;11.00;94.10;;;;;;5056050;28;20052;-78
2023/12/22 09:37:25;;;;;;;11.90;2.65;;;11.00;94.00;;;;;;5050961;28;20033;-78
2023/12/22 09:39:51;;;;;;;7.03;2.20;;;11.00;94.00;;;;;;5057431;28;20063;-77
2023/12/22 09:42:17;;;;;;;8.07;1.98;;;11.00;94.20;;;;;;5039835;28;20024;-77
2023/12/22 09:44:42;;;;;;;6.95;1.92;;;11.00;94.10;;;;;;5055366;28;20036;-77
2023/12/22 09:47:12;;;;;;;6.88;2.25;;;11.00;94.10;;;;;;5032071;28;20032;-78
2023/12/22 09:49:38;;;;;;;7.10;2.72;;;11.00;94.00;;;;;;5058398;28;20020;-77
2023/12/22 09:52:06;;;;;;;8.35;2.25;;;11.10;93.80;;;;;;5039946;28;20755;-78
2023/12/22 09:54:32;;;;;;;6.95;2.10;;;11.10;93.70;;;;;;5050760;28;20029;-77
2023/12/22 09:57:01;;;;;;;7.60;2.55;;;11.10;93.70;;;;;;5058429;28;20029;-77
2023/12/22 09:59:29;;;;;;;5.95;1.95;;;11.10;93.70;;;;;;5052287;28;20021;-77
2023/12/22 10:01:55;;;;;;;6.97;2.30;;;11.10;93.70;;;;;;5056311;28;20055;-76
2023/12/22 10:04:21;;;;;;;6.40;2.35;;;11.10;93.70;;;;;;5056618;28;20028;-77
2023/12/22 10:06:48;;;;;;;6.28;2.15;;;11.10;93.60;;;;;;5047063;28;20080;-77
2023/12/22 10:09:18;;;;;;;6.82;2.50;;;11.10;93.50;;;;;;5057521;28;20077;-78
2023/12/22 10:11:44;;;;;;;6.25;2.13;;;11.10;93.50;;;;;;5052962;28;20056;-77
2023/12/22 10:14:10;;;;;;;5.80;2.03;;;11.10;93.70;;;;;;5054354;28;20028;-78
2023/12/22 10:16:36;;;;;;;7.65;2.17;;;11.10;93.70;;;;;;5059309;28;20653;-79
2023/12/22 10:19:03;;;;;;;5.55;2.15;;;11.10;93.70;;;;;;5050769;28;20017;-78
2023/12/22 10:21:30;;;;;;;6.78;2.13;;;11.10;93.70;;;;;;5048663;28;21412;-77
2023/12/22 10:23:56;;;;;;;7.85;2.88;;;11.20;93.50;;;;;;5066376;28;20024;-78
2023/12/22 10:26:22;;;;;;;6.55;2.70;;;11.20;93.50;;;;;;5059876;28;20032;-79
2023/12/22 10:28:49;;;;;;;8.13;2.33;;;11.20;93.40;;;;;;5064898;28;20036;-78
2023/12/22 10:31:14;;;;;;;4.78;1.70;;;11.20;93.30;;;;;;5062132;28;20472;-78
2023/12/22 10:33:42;;;;;;;8.02;2.20;;;11.20;93.30;;;;;;5064905;28;20031;-78
2023/12/22 10:36:08;;;;;;;6.25;1.65;;;11.20;93.30;;;;;;5080792;28;20032;-78
2023/12/22 10:38:37;;;;;;;6.40;2.00;;;11.30;93.20;;;;;;5074268;28;20179;-77
2023/12/22 10:41:05;;;;;;;5.93;2.00;;;11.30;92.90;;;;;;5078282;28;20037;-76
2023/12/22 10:43:31;;;;;;;6.15;2.03;;;11.30;92.70;;;;;;5063185;28;20032;-77
2023/12/22 10:45:56;;;;;;;7.35;2.00;;;11.30;92.60;;;;;;5061719;28;20036;-76
2023/12/22 10:48:25;;;;;;;8.20;2.53;;;11.30;92.50;;;;;;5048755;28;20055;-76
2023/12/22 10:50:50;;;;;;;5.65;2.03;;;11.40;92.40;;;;;;5058355;28;20060;-77
2023/12/22 10:53:16;;;;;;;4.93;1.80;;;11.40;92.30;;;;;;5060599;28;20053;-75
2023/12/22 10:55:42;;;;;;;5.68;1.75;;;11.30;91.90;;;;;;5061622;28;20537;-77
2023/12/22 10:58:09;;;;;;;8.30;2.72;;;11.50;91.40;;;;;;5064127;28;20372;-78
2023/12/22 11:00:39;;;;;;;6.30;2.15;;;11.50;91.60;;;;;;5058140;28;20040;-77
2023/12/22 11:03:09;;;;;;;3.70;1.65;;;11.50;91.50;;;;;;5063320;28;20382;-78
2023/12/22 11:05:37;;;;;;;7.95;2.13;;;11.50;91.50;;;;;;5058903;28;20032;-77
2023/12/22 11:08:08;;;;;;;4.88;1.50;;;11.50;91.50;;;;;;5057467;28;20032;-78
2023/12/22 11:10:37;;;;;;;6.22;2.00;;;11.50;91.50;;;;;;5058464;28;20078;-77
2023/12/22 11:13:04;;;;;;;6.00;1.73;;;11.50;91.60;;;;;;5058312;28;20033;-77
2023/12/22 11:15:32;;;;;;;6.57;1.92;;;11.50;91.30;;;;;;5050574;28;20037;-77
2023/12/22 11:17:58;;;;;;;4.85;2.00;;;11.50;91.30;;;;;;5064930;28;20078;-78
2023/12/22 11:20:26;;;;;;;8.35;1.80;;;11.50;91.10;;;;;;5056236;28;20048;-76
2023/12/22 11:22:52;;;;;;;6.22;1.80;;;11.50;91.00;;;;;;5037514;28;20380;-76
2023/12/22 11:25:19;;;;;;;7.68;1.98;;;11.50;90.60;;;;;;5051910;28;20645;-77
2023/12/22 11:27:47;;;;;;;4.22;1.80;;;11.60;90.00;;;;;;5039110;28;20485;-76
2023/12/22 11:30:14;;;;;;;6.35;2.13;;;11.70;89.80;;;;;;5051729;28;20115;-77
2023/12/22 11:32:41;;;;;;;6.63;2.05;;;11.70;89.50;;;;;;5044110;28;20025;-77
2023/12/22 11:35:08;;;;;;;3.67;1.77;;;11.70;89.20;;;;;;5048075;28;20112;-74
2023/12/22 11:37:35;;;;;;;7.57;2.40;;;11.80;89.00;;;;;;5064484;28;20150;-76
2023/12/22 11:40:01;;;;;;;6.13;2.28;;;11.80;88.80;;;;;;5060914;28;20040;-75
2023/12/22 11:42:36;;;;;;;6.30;2.35;;;11.70;88.70;;;;;;5061224;28;20078;-76
2023/12/22 11:45:03;;;;;;;5.53;1.45;;;11.80;88.50;;;;;;5057974;28;20048;-80
2023/12/22 11:47:28;;;;;;;6.32;2.17;;;11.90;88.40;;;;;;5056933;28;20049;-77
2023/12/22 11:49:55;;;;;;;7.13;1.92;;;11.90;88.30;;;;;;5058909;28;20077;-78
2023/12/22 11:52:28;;;;;;;6.75;2.40;;;11.90;88.00;;;;;;5057189;28;20484;-78
2023/12/22 11:54:55;;;;;;;7.40;1.58;;;11.80;88.00;;;;;;5052499;28;20036;-79
2023/12/22 11:57:41;;;;;;;10.00;2.33;;;11.80;88.00;;;;;;5035090;28;20033;-78
2023/12/22 12:00:33;;;;;;;7.28;2.00;;;11.80;87.90;;;;;;5048768;28;20708;-79
2023/12/22 12:03:06;;;;;;;8.35;2.15;;;11.80;87.90;;;;;;5048011;28;20477;-79
2023/12/22 12:05:32;;;;;;;4.63;1.60;;;11.80;87.90;;;;;;5051628;28;20028;-79
2023/12/22 12:08:06;;;;;;;5.20;1.63;;;11.90;87.70;;;;;;5044090;28;20047;-78
2023/12/22 12:10:36;;;;;;;7.03;1.73;;;11.90;87.50;;;;;;5051730;28;20508;-79
2023/12/22 12:13:06;;;;;;;6.93;2.80;;;11.80;87.50;;;;;;5048568;28;20046;-77
2023/12/22 12:15:34;;;;;;;6.13;1.88;;;11.80;87.20;;;;;;5052437;28;20044;-78
2023/12/22 12:18:00;;;;;;;6.50;1.90;;;11.80;87.30;;;;;;5051196;28;20100;-78
2023/12/22 12:20:27;;;;;;;7.82;1.92;;;11.90;87.10;;;;;;5054272;28;20124;-79
2023/12/22 12:22:56;;;;;;;5.47;1.83;;;11.90;87.20;;;;;;5051771;28;20488;-78
2023/12/22 12:25:26;;;;;;;6.03;2.00;;;11.90;87.10;;;;;;5056798;28;20060;-78
2023/12/22 12:28:02;;;;;;;6.60;1.70;;;11.90;86.70;;;;;;5063489;28;20028;-79
2023/12/22 12:30:28;;;;;;;7.32;1.70;;;11.90;86.90;;;;;;5054423;28;20447;-78
2023/12/22 12:32:56;;;;;;;6.20;2.17;;;11.80;86.80;;;;;;5050672;28;20060;-78
2023/12/22 12:35:24;;;;;;;9.75;1.95;;;11.90;86.60;;;;;;5051175;28;20021;-78
2023/12/22 12:37:51;;;;;;;7.90;2.08;;;11.90;86.50;;;;;;5057183;28;20048;-79
2023/12/22 12:40:21;;;;;;;9.65;2.50;;;11.90;86.90;;;;;;5052285;28;20060;-80